Time;durP1;ratioP1;P1;durP2;ratioP2;P2;SDS_P1;SDS_P2;PMS_P1;PMS_P2;Temp;Humidity;BMP_temperature;BMP_pressure;BME280_temperature;BME280_humidity;BME280_pressure;Samples;Min_cycle;Max_cycle;Signal;HPM_P1;HPM_P2
2022/06/14 00:01:24;;;;;;;0.57;0.30;;;23.90;47.60;;;;;;6251945;28;20472;-50
2022/06/14 00:04:26;;;;;;;0.47;0.20;;;23.90;47.50;;;;;;6256822;28;20125;-48
2022/06/14 00:07:28;;;;;;;0.63;0.35;;;24.00;47.50;;;;;;6266955;28;20064;-53
2022/06/14 00:10:29;;;;;;;0.60;0.30;;;23.90;47.50;;;;;;6264886;28;20121;-48
2022/06/14 00:13:31;;;;;;;1.13;0.47;;;23.90;47.50;;;;;;6265547;28;21002;-49
2022/06/14 00:16:34;;;;;;;0.50;0.30;;;23.90;47.50;;;;;;6262574;28;20417;-50
2022/06/14 00:19:36;;;;;;;0.43;0.28;;;23.80;47.40;;;;;;6268891;28;20036;-49
2022/06/14 00:22:38;;;;;;;0.95;0.40;;;23.80;47.40;;;;;;6266467;28;20186;-49
2022/06/14 00:25:43;;;;;;;0.60;0.30;;;23.80;47.40;;;;;;6266147;28;20040;-51
2022/06/14 00:28:45;;;;;;;0.30;0.30;;;23.80;47.40;;;;;;6249621;28;20230;-50
2022/06/14 00:31:47;;;;;;;0.50;0.30;;;23.80;47.40;;;;;;6250906;28;20039;-48
2022/06/14 00:34:49;;;;;;;0.35;0.30;;;23.80;47.40;;;;;;6268816;28;20043;-48
2022/06/14 00:37:51;;;;;;;0.50;0.30;;;23.90;47.50;;;;;;6260380;28;20099;-54
2022/06/14 00:40:55;;;;;;;0.55;0.40;;;23.70;47.40;;;;;;6262297;28;20072;-48
2022/06/14 00:43:57;;;;;;;0.45;0.20;;;23.70;47.30;;;;;;6256769;28;20463;-51
2022/06/14 00:47:03;;;;;;;0.17;0.15;;;23.80;47.40;;;;;;6261509;28;20045;-53
2022/06/14 00:50:11;;;;;;;0.50;0.30;;;23.80;47.40;;;;;;6269163;28;20075;-49
2022/06/14 00:53:16;;;;;;;0.70;0.20;;;23.70;47.40;;;;;;6269982;28;20167;-50
2022/06/14 00:56:22;;;;;;;0.38;0.30;;;23.70;47.30;;;;;;6271181;28;20131;-51
2022/06/14 00:59:29;;;;;;;0.70;0.30;;;23.70;47.30;;;;;;6272421;28;20974;-51
2022/06/14 01:02:35;;;;;;;0.50;0.30;;;23.70;47.20;;;;;;6268107;28;20147;-48
2022/06/14 01:09:06;;;;;;;0.30;0.25;;;23.80;47.30;;;;;;6231904;28;20451;-48
2022/06/14 01:12:10;;;;;;;0.47;0.30;;;23.80;47.20;;;;;;6252797;28;20785;-47
2022/06/14 01:15:17;;;;;;;0.47;0.30;;;23.50;47.10;;;;;;6247155;28;20671;-50
2022/06/14 01:18:19;;;;;;;0.93;0.40;;;23.70;47.10;;;;;;6255473;28;20470;-50
2022/06/14 01:21:21;;;;;;;0.68;0.40;;;23.70;47.10;;;;;;6254681;28;20519;-53
2022/06/14 01:24:23;;;;;;;0.50;0.32;;;23.60;46.90;;;;;;6253969;28;20904;-52
2022/06/14 01:27:26;;;;;;;0.98;0.30;;;23.60;46.80;;;;;;6254119;28;20375;-49
2022/06/14 01:30:31;;;;;;;0.20;0.20;;;23.70;47.40;;;;;;6255879;28;20887;-49
2022/06/14 01:33:38;;;;;;;0.52;0.40;;;23.60;46.70;;;;;;6254196;28;20586;-46
2022/06/14 01:36:41;;;;;;;0.30;0.30;;;23.60;46.60;;;;;;6249105;28;20400;-48
2022/06/14 01:39:43;;;;;;;0.38;0.20;;;23.60;46.50;;;;;;6248663;28;20225;-48
2022/06/14 01:42:56;;;;;;;0.75;0.30;;;23.60;46.50;;;;;;6251629;28;20548;-49
2022/06/14 01:46:06;;;;;;;0.60;0.38;;;23.40;46.30;;;;;;6251671;28;20077;-46
2022/06/14 01:52:46;;;;;;;0.60;0.40;;;23.30;46.10;;;;;;6249658;28;20043;-50
2022/06/14 01:55:51;;;;;;;;;;;23.60;46.90;;;;;;6249180;28;20767;-49
2022/06/14 01:59:06;;;;;;;0.80;0.40;;;23.60;46.20;;;;;;6250098;28;20113;-50
2022/06/14 02:02:13;;;;;;;0.52;0.30;;;23.50;46.10;;;;;;6250681;28;20093;-47
2022/06/14 02:05:24;;;;;;;0.60;0.40;;;23.40;46.00;;;;;;6248709;28;20697;-49
2022/06/14 02:08:30;;;;;;;0.67;0.40;;;23.60;46.00;;;;;;6253515;28;20053;-48
2022/06/14 02:11:34;;;;;;;0.45;0.32;;;23.60;46.00;;;;;;6260175;28;20892;-48
2022/06/14 02:14:40;;;;;;;0.22;0.20;;;23.50;45.90;;;;;;6239401;28;20165;-49
2022/06/14 02:17:46;;;;;;;0.57;0.30;;;23.30;45.70;;;;;;6237207;28;20485;-50
2022/06/14 02:20:55;;;;;;;0.40;0.30;;;23.50;45.70;;;;;;6254144;28;20036;-52
2022/06/14 02:24:01;;;;;;;0.57;0.40;;;23.40;45.60;;;;;;6260194;28;20074;-50
2022/06/14 02:27:09;;;;;;;0.55;0.40;;;23.40;45.60;;;;;;6248603;28;20099;-53
2022/06/14 02:30:16;;;;;;;0.38;0.20;;;23.40;45.50;;;;;;6249132;28;20036;-49
2022/06/14 02:33:22;;;;;;;0.30;0.20;;;23.40;45.40;;;;;;6251875;28;20070;-50
2022/06/14 02:36:29;;;;;;;0.43;0.30;;;23.40;45.40;;;;;;6264946;28;20071;-51
2022/06/14 02:39:36;;;;;;;0.45;0.30;;;23.40;45.40;;;;;;6252382;28;20424;-51
2022/06/14 02:42:44;;;;;;;0.25;0.20;;;23.50;45.30;;;;;;6248599;28;20583;-46
2022/06/14 02:45:50;;;;;;;0.45;0.38;;;23.30;45.20;;;;;;6250386;28;20036;-50
2022/06/14 02:48:57;;;;;;;0.50;0.40;;;23.40;45.30;;;;;;6250262;28;20378;-48
2022/06/14 02:52:04;;;;;;;0.40;0.35;;;23.20;45.10;;;;;;6249046;28;20090;-52
2022/06/14 02:55:12;;;;;;;0.80;0.40;;;23.40;45.20;;;;;;6248455;28;20569;-52
2022/06/14 02:58:20;;;;;;;0.38;0.22;;;23.40;45.20;;;;;;6252313;28;20507;-52
2022/06/14 03:01:26;;;;;;;0.50;0.30;;;23.40;45.10;;;;;;6250020;28;20517;-50
2022/06/14 03:04:33;;;;;;;0.95;0.40;;;23.30;45.10;;;;;;6250690;28;20370;-48
2022/06/14 03:07:39;;;;;;;0.30;0.20;;;23.30;45.00;;;;;;6247471;28;20687;-49
2022/06/14 03:11:05;;;;;;;0.35;0.28;;;23.30;45.00;;;;;;6243553;28;20517;-49
2022/06/14 03:14:19;;;;;;;0.50;0.38;;;23.40;45.00;;;;;;6252884;28;20125;-49
2022/06/14 03:17:30;;;;;;;1.00;0.47;;;23.20;44.90;;;;;;6258071;28;20182;-46
2022/06/14 03:20:43;;;;;;;0.50;0.40;;;23.30;45.00;;;;;;6268722;28;20104;-47
2022/06/14 03:23:51;;;;;;;0.77;0.40;;;23.30;45.10;;;;;;6268242;28;20036;-47
2022/06/14 03:27:01;;;;;;;0.95;0.40;;;23.20;45.10;;;;;;6259917;28;20044;-49
2022/06/14 03:30:09;;;;;;;0.63;0.22;;;23.20;45.10;;;;;;6260284;28;20158;-46
2022/06/14 03:33:21;;;;;;;0.38;0.30;;;23.30;45.10;;;;;;6254651;28;20325;-51
2022/06/14 03:36:22;;;;;;;2.65;0.32;;;23.20;45.00;;;;;;6251589;28;20155;-51
2022/06/14 03:39:28;;;;;;;0.70;0.30;;;23.30;45.20;;;;;;6259424;28;20982;-50
2022/06/14 03:42:30;;;;;;;0.85;0.30;;;23.30;45.00;;;;;;6262260;28;20082;-51
2022/06/14 03:45:41;;;;;;;0.32;0.28;;;23.30;44.90;;;;;;6258730;28;20043;-48
2022/06/14 03:48:46;;;;;;;1.10;0.50;;;23.30;44.90;;;;;;6267399;28;20062;-48
2022/06/14 03:51:56;;;;;;;0.63;0.30;;;23.20;44.80;;;;;;6261527;28;21013;-51
2022/06/14 03:55:07;;;;;;;0.55;0.40;;;23.20;44.80;;;;;;6249881;28;20772;-49
2022/06/14 03:58:28;;;;;;;0.60;0.40;;;23.20;44.80;;;;;;6250164;28;20220;-48
2022/06/14 04:01:37;;;;;;;0.45;0.40;;;23.10;44.70;;;;;;6253046;28;20067;-52
2022/06/14 04:04:49;;;;;;;0.20;0.20;;;23.10;44.70;;;;;;6252742;28;20124;-51
2022/06/14 04:07:56;;;;;;;0.63;0.30;;;23.20;44.80;;;;;;6277661;28;20158;-51
2022/06/14 04:11:07;;;;;;;0.30;0.30;;;23.00;44.70;;;;;;6255613;28;20620;-47
2022/06/14 04:14:19;;;;;;;0.60;0.30;;;23.10;44.60;;;;;;6253515;28;21036;-50
2022/06/14 04:17:30;;;;;;;0.52;0.20;;;23.20;44.70;;;;;;6258428;28;20065;-50
2022/06/14 04:20:39;;;;;;;0.30;0.20;;;23.20;44.70;;;;;;6241220;28;20481;-50
2022/06/14 04:23:47;;;;;;;0.60;0.40;;;23.10;44.60;;;;;;6250222;28;20039;-49
2022/06/14 04:26:57;;;;;;;0.82;0.40;;;23.00;44.60;;;;;;6248661;28;20708;-47
2022/06/14 04:30:04;;;;;;;0.70;0.40;;;23.00;45.20;;;;;;6249865;28;20363;-51
2022/06/14 04:33:12;;;;;;;0.70;0.30;;;23.10;44.60;;;;;;6244840;28;20075;-49
2022/06/14 04:36:17;;;;;;;0.22;0.20;;;23.10;44.60;;;;;;6258961;28;20075;-48
2022/06/14 04:39:22;;;;;;;0.30;0.30;;;23.10;44.70;;;;;;6257645;28;20389;-50
2022/06/14 04:42:31;;;;;;;0.35;0.30;;;22.90;44.60;;;;;;6248102;28;20327;-50
2022/06/14 04:45:40;;;;;;;0.40;0.30;;;23.10;44.70;;;;;;6242005;28;20427;-49
2022/06/14 04:48:48;;;;;;;0.30;0.30;;;23.00;44.60;;;;;;6242543;28;20129;-47
2022/06/14 04:51:53;;;;;;;0.50;0.30;;;23.00;44.60;;;;;;6240013;28;20264;-50
2022/06/14 04:55:01;;;;;;;0.50;0.30;;;23.00;44.70;;;;;;6238841;28;20070;-51
2022/06/14 04:58:09;;;;;;;0.28;0.28;;;23.10;44.80;;;;;;6237702;28;20331;-54
2022/06/14 05:01:16;;;;;;;0.35;0.30;;;23.20;44.90;;;;;;6252976;28;20048;-49
2022/06/14 05:04:23;;;;;;;0.30;0.28;;;23.00;44.80;;;;;;6259385;28;20043;-51
2022/06/14 05:07:29;;;;;;;0.70;0.50;;;23.10;44.90;;;;;;6252712;28;20039;-51
2022/06/14 05:10:35;;;;;;;0.47;0.40;;;23.00;44.90;;;;;;6254631;28;21229;-47
2022/06/14 05:13:46;;;;;;;0.63;0.30;;;23.20;45.00;;;;;;6266381;27;20071;-49
2022/06/14 05:16:52;;;;;;;0.77;0.47;;;23.00;45.00;;;;;;6251256;28;20184;-51
2022/06/14 05:19:59;;;;;;;1.27;0.30;;;22.90;44.90;;;;;;6253327;28;22236;-49
2022/06/14 05:23:05;;;;;;;0.75;0.35;;;23.00;45.00;;;;;;6253311;28;22093;-52
2022/06/14 05:26:19;;;;;;;0.43;0.35;;;23.10;45.00;;;;;;6253854;28;20150;-52
2022/06/14 05:29:27;;;;;;;0.57;0.30;;;23.10;45.10;;;;;;6254303;28;20044;-51
2022/06/14 05:32:34;;;;;;;0.43;0.30;;;23.10;45.10;;;;;;6257186;28;20078;-53
2022/06/14 05:35:43;;;;;;;0.35;0.30;;;23.20;45.20;;;;;;6254731;28;20044;-51
2022/06/14 05:38:50;;;;;;;0.38;0.20;;;23.00;45.10;;;;;;6255445;28;21026;-49
2022/06/14 05:42:00;;;;;;;0.20;0.20;;;23.00;45.10;;;;;;6253130;28;20139;-50
2022/06/14 05:45:03;;;;;;;0.50;0.30;;;23.00;45.20;;;;;;6247682;28;20162;-51
2022/06/14 05:48:08;;;;;;;0.38;0.28;;;23.00;45.10;;;;;;6248447;28;20117;-51
2022/06/14 05:51:14;;;;;;;0.30;0.30;;;23.00;45.10;;;;;;6262286;28;21041;-49
2022/06/14 05:54:24;;;;;;;0.50;0.38;;;23.00;45.10;;;;;;6244846;28;20074;-52
2022/06/14 05:57:31;;;;;;;0.50;0.30;;;23.10;45.20;;;;;;6237126;28;20040;-50
2022/06/14 06:00:39;;;;;;;0.68;0.30;;;23.10;45.10;;;;;;6235904;28;20178;-50
2022/06/14 06:03:46;;;;;;;0.43;0.30;;;23.00;45.10;;;;;;6233386;28;20048;-51
2022/06/14 06:06:52;;;;;;;0.28;0.20;;;23.10;45.10;;;;;;6219118;28;20265;-46
2022/06/14 06:10:01;;;;;;;0.68;0.30;;;23.10;45.10;;;;;;6212740;28;21061;-48
2022/06/14 06:13:08;;;;;;;0.43;0.28;;;23.10;45.10;;;;;;6220881;28;20087;-47
2022/06/14 06:16:14;;;;;;;0.40;0.28;;;23.20;45.20;;;;;;6205805;28;20397;-49
2022/06/14 06:19:19;;;;;;;0.40;0.40;;;23.20;45.20;;;;;;6222058;28;20043;-49
2022/06/14 06:22:30;;;;;;;1.02;0.50;;;23.20;45.30;;;;;;6217096;28;20043;-51
2022/06/14 06:25:36;;;;;;;2.40;0.82;;;23.20;45.40;;;;;;6222412;28;20095;-52
2022/06/14 06:28:44;;;;;;;3.30;0.95;;;23.20;45.50;;;;;;6217188;28;20077;-51
2022/06/14 06:31:47;;;;;;;3.22;1.00;;;23.20;45.60;;;;;;6214084;28;20977;-52
2022/06/14 06:34:50;;;;;;;3.78;1.02;;;23.10;45.70;;;;;;6191111;28;20167;-50
2022/06/14 06:38:03;;;;;;;3.30;1.45;;;23.00;46.40;;;;;;6187959;28;20054;-53
2022/06/14 06:44:36;;;;;;;2.33;0.73;;;23.10;46.30;;;;;;6170904;28;20792;-52
2022/06/14 06:47:44;;;;;;;3.35;1.00;;;23.10;46.30;;;;;;6178164;28;21331;-51
2022/06/14 06:50:49;;;;;;;2.58;1.05;;;23.10;46.60;;;;;;6176639;28;20162;-53
2022/06/14 06:54:00;;;;;;;2.10;1.15;;;23.10;46.70;;;;;;6163512;28;20070;-54
2022/06/14 06:57:04;;;;;;;3.75;1.05;;;23.10;46.80;;;;;;6112448;28;23238;-46
2022/06/14 07:00:10;;;;;;;3.03;1.13;;;23.10;46.80;;;;;;6117084;28;20174;-49
2022/06/14 07:03:19;;;;;;;4.65;0.70;;;23.10;47.00;;;;;;6089013;28;20108;-45
2022/06/14 07:06:25;;;;;;;1.90;0.73;;;23.10;47.10;;;;;;6100869;28;20114;-47
2022/06/14 07:09:41;;;;;;;1.77;0.80;;;23.10;47.10;;;;;;6081470;28;20043;-55
2022/06/14 07:12:49;;;;;;;1.90;0.80;;;23.10;47.10;;;;;;6098749;28;21667;-51
2022/06/14 07:16:11;;;;;;;4.35;0.73;;;23.20;47.10;;;;;;6080307;28;20210;-51
2022/06/14 07:19:21;;;;;;;2.25;0.50;;;23.20;47.10;;;;;;6045112;28;20043;-50
2022/06/14 07:22:35;;;;;;;3.08;0.60;;;23.20;47.20;;;;;;6029324;28;20056;-51
2022/06/14 07:25:49;;;;;;;1.60;0.40;;;23.20;47.10;;;;;;6052020;28;20048;-50
2022/06/14 07:28:58;;;;;;;3.83;0.75;;;23.30;47.30;;;;;;6031064;28;36473;-60
2022/06/14 07:32:06;;;;;;;2.75;0.60;;;23.30;47.30;;;;;;5988818;28;20281;-54
2022/06/14 07:35:11;;;;;;;0.73;0.45;;;23.30;47.40;;;;;;6027484;28;20178;-56
2022/06/14 07:38:18;;;;;;;1.02;0.43;;;23.30;47.40;;;;;;6026859;28;22316;-54
2022/06/14 07:41:35;;;;;;;0.75;0.32;;;23.40;47.40;;;;;;6004496;28;20088;-58
2022/06/14 07:44:44;;;;;;;1.27;0.40;;;23.40;47.40;;;;;;6018397;28;20047;-56
2022/06/14 07:47:50;;;;;;;1.42;0.47;;;23.40;47.30;;;;;;6028741;28;20040;-54
2022/06/14 07:50:58;;;;;;;1.33;0.60;;;23.70;47.50;;;;;;5995125;28;21929;-53
2022/06/14 07:54:05;;;;;;;1.77;0.80;;;23.40;47.40;;;;;;5995531;28;20176;-54
2022/06/14 07:57:19;;;;;;;1.20;0.50;;;23.50;47.40;;;;;;6035970;28;22268;-54
2022/06/14 08:04:06;;;;;;;1.60;0.63;;;23.50;47.70;;;;;;5996785;28;20174;-50
2022/06/14 08:07:12;;;;;;;0.80;0.43;;;23.60;47.40;;;;;;5992596;28;26316;-54
2022/06/14 08:10:20;;;;;;;3.95;0.60;;;23.60;47.40;;;;;;6021747;28;20092;-52
2022/06/14 08:13:27;;;;;;;1.40;0.60;;;23.50;47.50;;;;;;6003711;28;20080;-50
2022/06/14 08:16:29;;;;;;;0.80;0.40;;;23.50;47.40;;;;;;6009767;28;23568;-49
2022/06/14 08:19:38;;;;;;;1.80;0.65;;;23.60;47.50;;;;;;6017776;28;20055;-52
2022/06/14 08:22:44;;;;;;;0.93;0.55;;;23.60;47.60;;;;;;6044034;27;20056;-49
2022/06/14 08:25:50;;;;;;;0.98;0.40;;;23.60;47.50;;;;;;5989302;28;20212;-50
2022/06/14 08:29:00;;;;;;;2.78;0.75;;;23.70;47.70;;;;;;6003762;28;20082;-52
2022/06/14 08:32:10;;;;;;;2.15;0.90;;;23.70;47.70;;;;;;5984699;28;20040;-50
2022/06/14 08:35:17;;;;;;;2.85;0.95;;;23.80;47.70;;;;;;5991456;28;20125;-52
2022/06/14 08:38:25;;;;;;;2.45;1.20;;;23.70;47.70;;;;;;6000061;28;20048;-53
2022/06/14 08:41:46;;;;;;;2.30;1.42;;;23.80;47.70;;;;;;6020922;28;21258;-52
2022/06/14 08:44:57;;;;;;;1.50;1.00;;;23.80;47.70;;;;;;6007779;28;20060;-55
2022/06/14 08:48:07;;;;;;;3.03;0.98;;;23.80;47.60;;;;;;6012428;28;24661;-54
2022/06/14 08:51:13;;;;;;;2.05;1.10;;;23.90;47.50;;;;;;6026021;28;24383;-57
2022/06/14 08:54:47;;;;;;;1.70;0.75;;;23.90;47.40;;;;;;5989261;28;20050;-51
2022/06/14 08:58:10;;;;;;;1.73;0.60;;;23.90;47.30;;;;;;6011698;28;21226;-52
2022/06/14 09:01:26;;;;;;;1.67;0.98;;;23.90;47.20;;;;;;6003186;28;20076;-55
2022/06/14 09:04:49;;;;;;;1.02;0.60;;;23.80;47.10;;;;;;5982381;28;25128;-54
2022/06/14 09:08:18;;;;;;;2.03;0.90;;;24.00;47.10;;;;;;5980443;28;20040;-50
2022/06/14 09:11:44;;;;;;;0.82;0.50;;;24.00;47.40;;;;;;6032339;28;20052;-55
2022/06/14 09:15:16;;;;;;;1.05;0.60;;;24.00;46.90;;;;;;6001325;28;20225;-54
2022/06/14 09:18:37;;;;;;;1.17;0.55;;;24.00;46.90;;;;;;6005631;28;20126;-53
2022/06/14 09:21:56;;;;;;;1.48;0.47;;;24.00;46.80;;;;;;5986418;28;20109;-54
2022/06/14 09:25:19;;;;;;;0.75;0.55;;;24.10;46.70;;;;;;6019783;28;20064;-54
2022/06/14 09:28:39;;;;;;;0.60;0.50;;;24.00;46.70;;;;;;5990086;28;22448;-53
2022/06/14 09:31:58;;;;;;;0.93;0.40;;;24.10;46.60;;;;;;5977933;28;20048;-54
2022/06/14 09:35:19;;;;;;;0.63;0.50;;;24.10;46.40;;;;;;5973992;28;21962;-55
2022/06/14 09:38:49;;;;;;;0.70;0.40;;;24.10;46.20;;;;;;6002349;28;20177;-51
2022/06/14 09:42:19;;;;;;;0.70;0.50;;;24.10;46.10;;;;;;6014093;28;20730;-49
2022/06/14 09:45:47;;;;;;;2.55;0.60;;;24.00;46.00;;;;;;6001595;28;20103;-48
2022/06/14 09:49:12;;;;;;;0.90;0.50;;;24.10;45.90;;;;;;6030027;28;20054;-50
2022/06/14 09:52:39;;;;;;;0.70;0.55;;;23.90;45.60;;;;;;5984938;28;20048;-51
2022/06/14 09:56:01;;;;;;;0.77;0.60;;;24.10;45.60;;;;;;6016824;28;20380;-47
2022/06/14 09:59:25;;;;;;;0.77;0.57;;;24.20;45.50;;;;;;6012227;28;20181;-48
2022/06/14 10:02:41;;;;;;;0.60;0.43;;;24.20;45.40;;;;;;5982388;28;20051;-46
2022/06/14 10:05:55;;;;;;;0.82;0.50;;;24.30;45.50;;;;;;6002330;28;20044;-52
2022/06/14 10:09:13;;;;;;;1.27;0.50;;;24.20;45.40;;;;;;5996590;28;20044;-46
2022/06/14 10:12:32;;;;;;;2.22;0.60;;;24.20;45.20;;;;;;6017714;28;20177;-46
2022/06/14 10:15:42;;;;;;;0.82;0.60;;;24.20;44.80;;;;;;6032272;28;20960;-47
2022/06/14 10:19:03;;;;;;;0.95;0.63;;;24.20;44.60;;;;;;6028272;28;20860;-48
2022/06/14 10:22:16;;;;;;;1.10;0.60;;;24.20;44.20;;;;;;6054227;28;20043;-49
2022/06/14 10:25:26;;;;;;;1.67;0.73;;;24.20;44.10;;;;;;6048954;28;20055;-48
2022/06/14 10:28:43;;;;;;;1.55;0.52;;;24.30;44.00;;;;;;6062825;28;20078;-51
2022/06/14 10:32:05;;;;;;;1.02;0.50;;;24.20;44.00;;;;;;6029331;28;20160;-47
2022/06/14 10:35:16;;;;;;;1.77;0.60;;;24.30;43.80;;;;;;6045582;28;20253;-47
2022/06/14 10:38:47;;;;;;;1.08;0.50;;;24.30;43.70;;;;;;6077045;28;20234;-50
2022/06/14 10:41:58;;;;;;;1.02;0.50;;;24.20;43.50;;;;;;6095746;28;20162;-52
2022/06/14 10:45:09;;;;;;;0.45;0.32;;;24.30;43.50;;;;;;6122954;28;20553;-49
2022/06/14 10:48:27;;;;;;;1.10;0.40;;;24.30;43.40;;;;;;6113129;28;21385;-48
2022/06/14 10:51:42;;;;;;;2.08;0.90;;;24.20;43.20;;;;;;6115028;28;20043;-48
2022/06/14 10:54:55;;;;;;;1.23;0.50;;;24.20;43.20;;;;;;6111647;28;20378;-46
2022/06/14 10:58:15;;;;;;;1.92;0.60;;;24.30;43.10;;;;;;6167525;28;20058;-52
2022/06/14 11:01:28;;;;;;;1.55;0.60;;;24.30;43.10;;;;;;6117545;28;20086;-49
2022/06/14 11:04:36;;;;;;;0.88;0.40;;;24.30;43.00;;;;;;6128417;28;20189;-47
2022/06/14 11:07:57;;;;;;;1.30;0.50;;;24.30;43.00;;;;;;6140212;28;20044;-47
2022/06/14 11:11:19;;;;;;;1.10;0.60;;;24.30;42.80;;;;;;6155272;28;20047;-48
2022/06/14 11:14:31;;;;;;;0.70;0.50;;;24.30;42.90;;;;;;6137325;28;20136;-47
2022/06/14 11:17:46;;;;;;;0.70;0.40;;;24.10;42.80;;;;;;6140885;28;20071;-49
2022/06/14 11:20:55;;;;;;;0.60;0.40;;;24.30;42.90;;;;;;6150454;28;31699;-47
2022/06/14 11:24:05;;;;;;;0.88;0.40;;;24.30;42.80;;;;;;6147736;28;20047;-48
2022/06/14 11:27:19;;;;;;;0.40;0.40;;;24.30;42.80;;;;;;6132931;28;20119;-47
2022/06/14 11:30:31;;;;;;;1.35;0.60;;;24.30;42.80;;;;;;6114350;28;20089;-48
2022/06/14 11:33:48;;;;;;;0.60;0.40;;;24.30;42.70;;;;;;6121737;28;20048;-47
2022/06/14 11:37:04;;;;;;;1.60;0.95;;;24.30;42.70;;;;;;6118766;28;20072;-47
2022/06/14 11:40:11;;;;;;;2.15;0.65;;;24.40;42.50;;;;;;6097065;28;20036;-49
2022/06/14 11:43:24;;;;;;;1.17;0.50;;;24.30;42.20;;;;;;6065254;28;20044;-48
2022/06/14 11:46:38;;;;;;;1.35;0.80;;;24.40;42.10;;;;;;6079895;28;20081;-51
2022/06/14 11:49:46;;;;;;;1.17;0.60;;;24.40;42.00;;;;;;6107382;28;20043;-48
2022/06/14 11:53:10;;;;;;;1.65;0.60;;;24.40;42.10;;;;;;6071062;28;20052;-50
2022/06/14 11:56:17;;;;;;;1.10;0.73;;;24.50;42.00;;;;;;6076132;28;20079;-47
2022/06/14 11:59:36;;;;;;;0.75;0.35;;;24.30;42.00;;;;;;6048988;28;20048;-49
2022/06/14 12:02:43;;;;;;;0.77;0.50;;;24.40;41.80;;;;;;6003286;28;21126;-50
2022/06/14 12:05:50;;;;;;;0.90;0.60;;;24.50;41.90;;;;;;6012517;28;20443;-51
2022/06/14 12:09:12;;;;;;;0.68;0.52;;;24.50;42.00;;;;;;6072556;28;20171;-55
2022/06/14 12:12:22;;;;;;;0.82;0.40;;;24.40;41.90;;;;;;6067146;28;20044;-51
2022/06/14 12:15:33;;;;;;;2.17;0.40;;;24.50;42.00;;;;;;6047114;28;20047;-50
2022/06/14 12:18:39;;;;;;;0.75;0.40;;;24.40;41.90;;;;;;6057078;28;20058;-50
2022/06/14 12:29:04;;;;;;;0.47;0.40;;;24.60;42.00;;;;;;6053416;27;20051;-53
2022/06/14 12:32:15;;;;;;;0.50;0.30;;;24.50;42.00;;;;;;6006684;28;20044;-49
2022/06/14 12:35:20;;;;;;;;;;;24.50;42.00;;;;;;6034651;28;20094;-49
2022/06/14 12:38:28;;;;;;;0.50;0.30;;;24.60;42.10;;;;;;6029030;28;19927;-55
2022/06/14 12:41:42;;;;;;;0.80;0.50;;;24.50;41.90;;;;;;6065402;28;20043;-53
2022/06/14 12:44:50;;;;;;;1.70;0.70;;;24.50;41.80;;;;;;6050319;28;20191;-50
2022/06/14 12:48:03;;;;;;;0.85;0.50;;;24.60;41.80;;;;;;6049180;28;20189;-53
2022/06/14 12:51:17;;;;;;;1.10;0.50;;;24.50;41.80;;;;;;6072456;28;20041;-52
2022/06/14 12:54:33;;;;;;;0.95;0.40;;;24.60;41.90;;;;;;6045054;28;20044;-51
2022/06/14 12:57:56;;;;;;;0.40;0.30;;;24.60;41.90;;;;;;6031809;28;20054;-54
2022/06/14 13:01:12;;;;;;;1.15;0.55;;;24.60;41.80;;;;;;6037520;28;20047;-56
2022/06/14 13:04:18;;;;;;;1.10;0.50;;;24.60;41.70;;;;;;6000203;28;20082;-54
2022/06/14 13:07:39;;;;;;;1.42;0.30;;;24.80;41.80;;;;;;6031802;28;20048;-49
2022/06/14 13:10:52;;;;;;;0.90;0.40;;;24.90;41.70;;;;;;6071808;28;20042;-52
2022/06/14 13:14:07;;;;;;;1.05;0.40;;;24.60;41.40;;;;;;6020077;28;20047;-54
2022/06/14 13:17:22;;;;;;;0.52;0.40;;;24.70;41.40;;;;;;6011003;28;21723;-50
2022/06/14 13:20:35;;;;;;;0.85;0.30;;;24.70;41.40;;;;;;6030597;27;20043;-50
2022/06/14 13:23:45;;;;;;;0.73;0.30;;;24.70;41.40;;;;;;6036555;28;20055;-49
2022/06/14 13:26:56;;;;;;;2.25;0.50;;;24.70;41.40;;;;;;6036262;28;21488;-50
2022/06/14 13:30:09;;;;;;;2.15;0.40;;;24.60;41.30;;;;;;6024482;28;20077;-49
2022/06/14 13:33:25;;;;;;;1.15;0.57;;;24.70;41.20;;;;;;6023622;28;20051;-50
2022/06/14 13:36:37;;;;;;;0.55;0.32;;;24.70;41.20;;;;;;6024388;28;20042;-50
2022/06/14 13:39:47;;;;;;;;;;;24.80;41.10;;;;;;6011168;28;20075;-53
2022/06/14 13:42:56;;;;;;;0.55;0.20;;;24.70;41.10;;;;;;6063431;28;26957;-54
2022/06/14 13:46:05;;;;;;;0.88;0.43;;;24.70;41.00;;;;;;6041583;28;20050;-49
2022/06/14 13:49:15;;;;;;;1.42;0.40;;;24.70;41.20;;;;;;6043072;27;20075;-51
2022/06/14 13:52:29;;;;;;;0.63;0.50;;;24.70;41.10;;;;;;6037967;28;20075;-51
2022/06/14 13:55:40;;;;;;;0.73;0.30;;;24.80;41.10;;;;;;6032141;28;20173;-50
2022/06/14 13:58:49;;;;;;;0.80;0.40;;;24.90;41.10;;;;;;5985147;28;22208;-51
2022/06/14 14:05:31;;;;;;;1.10;0.47;;;24.90;40.90;;;;;;6007102;28;22316;-51
2022/06/14 14:08:44;;;;;;;0.60;0.40;;;25.00;41.00;;;;;;6026590;28;20078;-54
2022/06/14 14:11:56;;;;;;;0.50;0.35;;;24.90;41.00;;;;;;6032820;28;20048;-51
2022/06/14 14:15:14;;;;;;;1.02;0.50;;;25.10;41.10;;;;;;6044138;28;20051;-52
2022/06/14 14:18:28;;;;;;;0.80;0.50;;;24.90;41.10;;;;;;6050991;28;20036;-49
2022/06/14 14:21:36;;;;;;;0.95;0.40;;;24.90;41.10;;;;;;6047201;28;20174;-50
2022/06/14 14:24:43;;;;;;;0.50;0.40;;;24.90;41.10;;;;;;6055995;28;20124;-48
2022/06/14 14:27:51;;;;;;;0.85;0.60;;;24.90;41.10;;;;;;6066484;28;23316;-52
2022/06/14 14:31:13;;;;;;;1.05;0.30;;;24.90;41.00;;;;;;6049096;28;20170;-49
2022/06/14 14:34:22;;;;;;;1.42;0.40;;;24.90;40.90;;;;;;6022061;28;20302;-51
2022/06/14 14:37:29;;;;;;;0.50;0.40;;;24.90;40.80;;;;;;6017895;28;20360;-48
2022/06/14 14:44:19;;;;;;;0.50;0.30;;;25.00;40.80;;;;;;6043237;27;20036;-47
2022/06/14 14:47:26;;;;;;;1.02;0.40;;;25.00;40.70;;;;;;6040746;28;20040;-52
2022/06/14 14:50:38;;;;;;;0.85;0.50;;;25.00;40.60;;;;;;5985977;28;22044;-47
2022/06/14 14:53:48;;;;;;;0.73;0.43;;;24.90;40.40;;;;;;6003207;28;20167;-51
2022/06/14 14:56:57;;;;;;;1.90;0.60;;;24.90;40.30;;;;;;6034856;28;24279;-47
2022/06/14 15:00:04;;;;;;;0.98;0.40;;;25.00;40.20;;;;;;6044748;28;20166;-49
2022/06/14 15:06:34;;;;;;;0.80;0.40;;;24.90;40.10;;;;;;6046947;28;20044;-49
2022/06/14 15:09:40;;;;;;;0.75;0.35;;;25.00;40.10;;;;;;6077080;28;22504;-50
2022/06/14 15:12:47;;;;;;;0.63;0.50;;;25.00;40.20;;;;;;6068774;28;28111;-49
2022/06/14 15:15:50;;;;;;;0.73;0.50;;;25.00;40.10;;;;;;6059905;28;20044;-50
2022/06/14 15:22:18;;;;;;;1.02;0.50;;;25.00;40.10;;;;;;6058884;28;20174;-47
2022/06/14 15:25:23;;;;;;;1.23;0.50;;;25.00;40.10;;;;;;6087958;28;20044;-49
2022/06/14 15:28:41;;;;;;;0.60;0.40;;;25.00;40.10;;;;;;6080233;28;20174;-51
2022/06/14 15:31:56;;;;;;;0.52;0.40;;;25.00;40.20;;;;;;6073493;28;21303;-51
2022/06/14 15:35:01;;;;;;;1.02;0.50;;;25.10;40.10;;;;;;6084533;28;20044;-53
2022/06/14 15:38:19;;;;;;;0.80;0.40;;;25.00;40.00;;;;;;6098511;28;20183;-49
2022/06/14 15:41:24;;;;;;;3.22;0.88;;;25.00;40.00;;;;;;6089515;28;20044;-49
2022/06/14 15:44:28;;;;;;;1.00;0.63;;;25.00;39.90;;;;;;6090848;28;20051;-50
2022/06/14 15:47:35;;;;;;;1.00;0.40;;;25.00;40.00;;;;;;6078687;28;21107;-50
2022/06/14 15:50:40;;;;;;;0.90;0.43;;;25.10;39.90;;;;;;6034841;28;21385;-49
2022/06/14 15:53:46;;;;;;;1.92;0.57;;;25.00;39.80;;;;;;6084117;28;20191;-48
2022/06/14 15:56:54;;;;;;;1.13;0.50;;;25.10;39.90;;;;;;6121974;28;20079;-47
2022/06/14 16:00:04;;;;;;;0.90;0.50;;;25.10;39.80;;;;;;6131645;28;20090;-46
2022/06/14 16:03:17;;;;;;;0.60;0.50;;;25.10;39.60;;;;;;6091543;28;20055;-48
2022/06/14 16:06:27;;;;;;;0.63;0.50;;;25.10;39.70;;;;;;6119827;28;20080;-52
2022/06/14 16:09:34;;;;;;;0.70;0.50;;;25.10;39.60;;;;;;6110963;28;21005;-47
2022/06/14 16:12:41;;;;;;;0.40;0.40;;;25.10;39.70;;;;;;6123413;28;20174;-50
2022/06/14 16:15:47;;;;;;;1.70;0.70;;;25.10;39.70;;;;;;6135945;28;20417;-50
2022/06/14 16:18:50;;;;;;;0.80;0.47;;;25.10;39.70;;;;;;6164066;28;21450;-49
2022/06/14 16:21:58;;;;;;;1.10;0.47;;;25.10;39.70;;;;;;6184378;28;20044;-49
2022/06/14 16:25:01;;;;;;;1.17;0.50;;;25.10;39.70;;;;;;6154560;28;20048;-47
2022/06/14 16:28:11;;;;;;;1.33;0.35;;;25.20;39.80;;;;;;6157779;28;20189;-48
2022/06/14 16:31:20;;;;;;;1.05;0.50;;;25.20;39.80;;;;;;6144208;28;20610;-51
2022/06/14 16:34:30;;;;;;;1.10;0.47;;;25.20;39.80;;;;;;6176384;28;20043;-55
2022/06/14 16:37:39;;;;;;;1.30;0.40;;;25.20;39.70;;;;;;6180727;28;20312;-51
2022/06/14 16:40:47;;;;;;;0.93;0.38;;;25.20;39.70;;;;;;6203451;28;21237;-54
2022/06/14 16:43:56;;;;;;;0.70;0.40;;;25.20;39.70;;;;;;6194881;28;20449;-47
2022/06/14 16:47:06;;;;;;;0.73;0.40;;;25.20;39.60;;;;;;6179960;28;20155;-48
2022/06/14 16:50:16;;;;;;;0.60;0.23;;;25.20;39.60;;;;;;6214202;28;20080;-58
2022/06/14 16:53:27;;;;;;;0.30;0.30;;;25.30;39.60;;;;;;6202299;28;22365;-50
2022/06/14 16:56:42;;;;;;;0.63;0.30;;;25.30;39.60;;;;;;6220305;28;20048;-49
2022/06/14 16:59:53;;;;;;;0.50;0.28;;;25.20;39.50;;;;;;6224171;28;20139;-52
2022/06/14 17:03:08;;;;;;;0.43;0.17;;;25.30;39.60;;;;;;6225063;28;20878;-52
2022/06/14 17:06:24;;;;;;;0.45;0.35;;;25.30;39.60;;;;;;6215543;28;20052;-48